Time;durP1;ratioP1;P1;durP2;ratioP2;P2;SDS_P1;SDS_P2;PMS_P1;PMS_P2;Temp;Humidity;BMP_temperature;BMP_pressure;BME280_temperature;BME280_humidity;BME280_pressure;Samples;Min_cycle;Max_cycle;Signal;HPM_P1;HPM_P2
2022/04/13 00:00:59;;;;;;;21.10;12.15;;;8.30;99.90;;;;;;5043460;28;20194;-85
2022/04/13 00:03:25;;;;;;;15.95;9.75;;;8.30;99.90;;;;;;5054924;28;20033;-85
2022/04/13 00:05:51;;;;;;;19.58;10.65;;;8.30;99.90;;;;;;5054578;28;20028;-84
2022/04/13 00:08:16;;;;;;;17.95;10.20;;;8.30;99.90;;;;;;5075467;28;20044;-85
2022/04/13 00:10:43;;;;;;;20.80;11.02;;;8.20;99.90;;;;;;5061294;28;20040;-85
2022/04/13 00:13:09;;;;;;;21.58;11.88;;;8.30;99.90;;;;;;5058880;28;20355;-85
2022/04/13 00:15:35;;;;;;;22.30;11.13;;;8.30;99.90;;;;;;5059470;28;20537;-85
2022/04/13 00:18:10;;;;;;;21.38;10.98;;;8.40;99.90;;;;;;5034169;28;20192;-85
2022/04/13 00:20:36;;;;;;;18.48;11.20;;;8.40;99.90;;;;;;5052765;28;20028;-86
2022/04/13 00:23:02;;;;;;;16.90;9.45;;;8.40;99.90;;;;;;5054995;28;20033;-85
2022/04/13 00:25:28;;;;;;;17.20;11.13;;;8.40;99.90;;;;;;5056830;28;20025;-85
2022/04/13 00:27:55;;;;;;;21.30;11.73;;;8.30;99.90;;;;;;5053500;28;20040;-84
2022/04/13 00:30:21;;;;;;;21.35;11.85;;;8.30;99.90;;;;;;5050403;28;20399;-85
2022/04/13 00:32:47;;;;;;;18.50;10.85;;;8.40;99.90;;;;;;5047756;28;20048;-85
2022/04/13 00:35:12;;;;;;;20.92;10.15;;;8.50;99.90;;;;;;5056516;28;20115;-85
2022/04/13 00:37:39;;;;;;;15.50;10.13;;;8.50;99.90;;;;;;5073658;28;20057;-85
2022/04/13 00:40:06;;;;;;;16.45;10.57;;;8.50;99.90;;;;;;5051079;28;20094;-85
2022/04/13 00:42:32;;;;;;;18.08;10.07;;;8.50;99.90;;;;;;5059903;28;20029;-85
2022/04/13 00:44:58;;;;;;;16.67;10.35;;;8.40;99.90;;;;;;5055868;28;20033;-85
2022/04/13 00:47:25;;;;;;;16.05;9.65;;;8.50;99.90;;;;;;5058947;28;20032;-85
2022/04/13 00:49:50;;;;;;;21.67;10.55;;;8.50;99.90;;;;;;5051358;28;20072;-86
2022/04/13 00:52:19;;;;;;;15.07;9.25;;;8.50;99.90;;;;;;5073105;28;20037;-84
2022/04/13 00:54:48;;;;;;;18.98;8.80;;;8.50;99.90;;;;;;5072591;28;20037;-86
2022/04/13 00:57:16;;;;;;;19.15;11.23;;;8.40;99.90;;;;;;5062538;28;20547;-86
2022/04/13 00:59:44;;;;;;;17.65;10.45;;;8.50;99.90;;;;;;5075864;28;20287;-85
2022/04/13 01:02:12;;;;;;;24.30;11.18;;;8.50;99.90;;;;;;5053563;28;20212;-86
2022/04/13 01:04:38;;;;;;;14.90;9.95;;;8.60;99.90;;;;;;5052542;28;20037;-86
2022/04/13 01:07:09;;;;;;;20.90;10.77;;;8.60;99.90;;;;;;5058830;28;20041;-88
2022/04/13 01:09:36;;;;;;;23.02;11.68;;;8.70;99.90;;;;;;5055009;28;20445;-85
2022/04/13 01:12:02;;;;;;;14.98;9.50;;;8.70;99.90;;;;;;5062120;28;20082;-85
2022/04/13 01:14:28;;;;;;;19.13;11.15;;;8.60;99.90;;;;;;5052414;28;20040;-86
2022/04/13 01:16:54;;;;;;;18.17;10.95;;;8.50;99.90;;;;;;5073985;28;20029;-86
2022/04/13 01:19:22;;;;;;;16.60;9.80;;;8.50;99.90;;;;;;5072092;28;20058;-86
2022/04/13 01:21:59;;;;;;;19.27;11.55;;;8.60;99.90;;;;;;5060180;28;20029;-86
2022/04/13 01:24:25;;;;;;;20.20;9.93;;;8.60;99.90;;;;;;5055591;28;20021;-86
2022/04/13 01:26:51;;;;;;;17.35;11.05;;;8.60;99.90;;;;;;5053149;28;20044;-86
2022/04/13 01:29:18;;;;;;;17.25;10.07;;;8.70;99.90;;;;;;5049682;28;20087;-86
2022/04/13 01:31:44;;;;;;;18.63;9.40;;;8.60;99.90;;;;;;5058721;28;20049;-86
2022/04/13 01:34:12;;;;;;;19.25;10.27;;;8.60;99.90;;;;;;5047082;28;20040;-86
2022/04/13 01:36:38;;;;;;;21.17;11.43;;;8.60;99.90;;;;;;5064733;28;20074;-86
2022/04/13 01:39:06;;;;;;;15.48;10.43;;;8.50;99.90;;;;;;5056201;28;20026;-87
2022/04/13 01:41:32;;;;;;;18.95;10.85;;;8.50;99.90;;;;;;5055994;28;20122;-85
2022/04/13 01:43:58;;;;;;;17.05;11.35;;;8.30;99.90;;;;;;5059865;28;20044;-86
2022/04/13 01:46:24;;;;;;;16.45;10.52;;;8.30;99.90;;;;;;5054326;28;20022;-86
2022/04/13 01:48:50;;;;;;;20.48;11.02;;;8.30;99.90;;;;;;5072535;28;20041;-86
2022/04/13 01:51:17;;;;;;;19.05;10.82;;;8.20;99.90;;;;;;5053393;28;20040;-87
2022/04/13 01:53:43;;;;;;;20.63;11.70;;;8.20;99.90;;;;;;5040154;28;20063;-85
2022/04/13 01:56:09;;;;;;;21.73;11.77;;;8.20;99.90;;;;;;5033243;28;20033;-85
2022/04/13 01:58:35;;;;;;;22.42;11.77;;;8.10;99.90;;;;;;5051075;28;20028;-86
2022/04/13 02:01:01;;;;;;;21.85;12.45;;;8.10;99.90;;;;;;5049717;28;20178;-87
2022/04/13 02:03:27;;;;;;;19.80;10.48;;;8.00;99.90;;;;;;5049561;28;20028;-86
2022/04/13 02:05:54;;;;;;;18.00;11.32;;;8.00;99.90;;;;;;5054438;28;20021;-86
2022/04/13 02:08:20;;;;;;;19.38;11.13;;;7.90;99.90;;;;;;5064071;28;20032;-86
2022/04/13 02:10:46;;;;;;;18.98;10.85;;;7.80;99.90;;;;;;5063319;28;20032;-86
2022/04/13 02:13:12;;;;;;;20.77;12.07;;;7.80;99.90;;;;;;5054393;28;20788;-86
2022/04/13 02:15:38;;;;;;;17.92;10.40;;;7.80;99.90;;;;;;5054269;28;20033;-89
2022/04/13 02:18:05;;;;;;;18.42;12.52;;;7.70;99.90;;;;;;5059415;28;20029;-86
2022/04/13 02:20:31;;;;;;;19.75;11.00;;;7.70;99.90;;;;;;5056713;28;20082;-86
2022/04/13 02:22:56;;;;;;;16.80;10.43;;;7.60;99.90;;;;;;5058602;28;20056;-86
2022/04/13 02:25:22;;;;;;;19.70;11.88;;;7.60;99.90;;;;;;5058232;28;20434;-86
2022/04/13 02:27:48;;;;;;;17.80;11.27;;;7.60;99.90;;;;;;5050568;28;20118;-88
2022/04/13 02:30:15;;;;;;;19.90;11.85;;;7.50;99.90;;;;;;5030234;28;20523;-86
2022/04/13 02:32:45;;;;;;;17.80;10.57;;;7.50;99.90;;;;;;5046603;28;20505;-86
2022/04/13 02:35:12;;;;;;;18.33;11.48;;;7.30;99.90;;;;;;5051094;28;20076;-86
2022/04/13 02:37:38;;;;;;;20.58;12.48;;;7.40;99.90;;;;;;5055055;28;20029;-88
2022/04/13 02:40:06;;;;;;;18.30;11.68;;;7.40;99.90;;;;;;5061145;28;20052;-86
2022/04/13 02:42:35;;;;;;;20.33;10.55;;;7.40;99.90;;;;;;5058553;28;20873;-86
2022/04/13 02:45:02;;;;;;;16.33;9.40;;;7.40;99.90;;;;;;5054326;28;20033;-86
2022/04/13 02:47:28;;;;;;;18.10;10.68;;;7.30;99.90;;;;;;5057359;28;20110;-88
2022/04/13 02:49:56;;;;;;;20.58;11.63;;;7.10;99.90;;;;;;5054617;28;20036;-86
2022/04/13 02:52:28;;;;;;;14.98;9.40;;;7.10;99.90;;;;;;5038831;28;20046;-86
2022/04/13 02:54:55;;;;;;;17.65;9.68;;;7.10;99.90;;;;;;5047059;28;20026;-86
2022/04/13 02:57:20;;;;;;;17.73;11.00;;;7.20;99.90;;;;;;5069702;28;20372;-85
2022/04/13 02:59:47;;;;;;;20.42;11.75;;;7.20;99.90;;;;;;5055270;28;20039;-87
2022/04/13 03:02:16;;;;;;;16.80;10.50;;;7.20;99.90;;;;;;5074400;28;20130;-86
2022/04/13 03:04:43;;;;;;;20.05;11.75;;;7.30;99.90;;;;;;5047125;28;20029;-85
2022/04/13 03:07:14;;;;;;;19.63;11.52;;;7.30;99.90;;;;;;5056578;28;20086;-86
2022/04/13 03:09:40;;;;;;;20.80;11.30;;;7.30;99.90;;;;;;5054141;28;20037;-86
2022/04/13 03:12:07;;;;;;;19.02;11.63;;;7.30;99.90;;;;;;5090702;28;20037;-85
2022/04/13 03:14:34;;;;;;;17.40;11.65;;;7.30;99.90;;;;;;5092575;28;20024;-86
2022/04/13 03:17:00;;;;;;;23.90;11.48;;;7.30;99.90;;;;;;5052348;28;20117;-86
2022/04/13 03:19:25;;;;;;;17.85;10.18;;;7.30;99.90;;;;;;5052822;28;20545;-88
2022/04/13 03:21:53;;;;;;;17.98;10.88;;;7.40;99.90;;;;;;5053511;28;20060;-86
2022/04/13 03:24:20;;;;;;;17.30;10.40;;;7.30;99.90;;;;;;5055360;28;20167;-86
2022/04/13 03:26:46;;;;;;;22.33;13.00;;;7.30;99.90;;;;;;5048588;28;20033;-86
2022/04/13 03:29:11;;;;;;;19.52;11.50;;;7.30;99.90;;;;;;5052221;28;20037;-86
2022/04/13 03:31:37;;;;;;;21.83;13.93;;;7.30;99.90;;;;;;5053494;28;20415;-86
2022/04/13 03:34:03;;;;;;;18.73;12.38;;;7.50;99.90;;;;;;5046719;28;20163;-86
2022/04/13 03:36:29;;;;;;;21.10;11.15;;;7.60;99.90;;;;;;5056487;28;20103;-85
2022/04/13 03:38:55;;;;;;;21.98;12.02;;;7.60;99.90;;;;;;5076262;28;20037;-85
2022/04/13 03:41:20;;;;;;;18.05;10.80;;;7.40;99.90;;;;;;5057808;28;20039;-86
2022/04/13 03:43:46;;;;;;;17.38;10.60;;;7.30;99.90;;;;;;5058270;28;20094;-85
2022/04/13 03:46:12;;;;;;;20.08;11.50;;;7.10;99.90;;;;;;5057458;28;20426;-85
2022/04/13 03:48:37;;;;;;;21.02;11.43;;;7.00;99.90;;;;;;5053085;28;20154;-85
2022/04/13 03:51:05;;;;;;;18.98;11.23;;;6.90;99.90;;;;;;5053764;28;20041;-85
2022/04/13 03:53:31;;;;;;;18.02;10.23;;;6.80;99.90;;;;;;5055763;28;20032;-85
2022/04/13 03:55:56;;;;;;;19.20;11.13;;;6.70;99.90;;;;;;5058073;28;20021;-89
2022/04/13 03:58:22;;;;;;;18.00;11.32;;;6.70;99.90;;;;;;5049901;28;20383;-85
2022/04/13 04:00:48;;;;;;;21.60;11.20;;;6.60;99.90;;;;;;5051872;28;20048;-85
2022/04/13 04:03:14;;;;;;;18.85;12.30;;;6.70;99.90;;;;;;5045567;28;20025;-84
2022/04/13 04:05:39;;;;;;;17.88;11.45;;;6.80;99.90;;;;;;5079433;28;20041;-86
2022/04/13 04:08:05;;;;;;;17.80;11.77;;;6.70;99.90;;;;;;5046671;28;20026;-86
2022/04/13 04:10:31;;;;;;;23.13;10.73;;;6.60;99.90;;;;;;5048719;28;20511;-86
2022/04/13 04:12:56;;;;;;;15.82;9.90;;;6.50;99.90;;;;;;5046281;28;20051;-86
2022/04/13 04:15:22;;;;;;;17.65;9.88;;;6.50;99.90;;;;;;5044213;28;20040;-85
2022/04/13 04:17:48;;;;;;;18.23;12.00;;;6.40;99.90;;;;;;5064458;28;20143;-86
2022/04/13 04:20:14;;;;;;;23.42;11.82;;;6.20;99.90;;;;;;5051470;28;20040;-85
2022/04/13 04:22:39;;;;;;;20.55;10.88;;;6.20;99.90;;;;;;5039391;28;20440;-87
2022/04/13 04:25:07;;;;;;;18.75;10.10;;;6.20;99.90;;;;;;5042144;28;20143;-85
2022/04/13 04:27:33;;;;;;;17.67;10.80;;;6.30;99.90;;;;;;5049747;28;20029;-85
2022/04/13 04:29:59;;;;;;;16.77;11.45;;;6.10;99.90;;;;;;5039550;28;20029;-86
2022/04/13 04:32:25;;;;;;;21.98;11.52;;;6.10;99.90;;;;;;5040856;28;20150;-86
2022/04/13 04:34:51;;;;;;;20.25;10.88;;;6.10;99.90;;;;;;5039682;28;20048;-86
2022/04/13 04:37:17;;;;;;;17.92;10.95;;;6.00;99.90;;;;;;5059396;28;20009;-86
2022/04/13 04:39:44;;;;;;;18.02;12.18;;;5.90;99.90;;;;;;5051506;28;20047;-86
2022/04/13 04:42:10;;;;;;;18.60;11.75;;;6.00;99.90;;;;;;5050397;28;20029;-86
2022/04/13 04:44:35;;;;;;;17.58;10.85;;;5.90;99.90;;;;;;5043998;28;20041;-89
2022/04/13 04:47:01;;;;;;;21.52;12.20;;;5.80;99.90;;;;;;5051613;28;20065;-86
2022/04/13 04:49:27;;;;;;;19.52;10.10;;;5.70;99.90;;;;;;5055129;28;20029;-86
2022/04/13 04:51:52;;;;;;;17.00;10.20;;;5.60;99.90;;;;;;5072516;28;20576;-86
2022/04/13 04:54:18;;;;;;;16.58;10.82;;;5.70;99.90;;;;;;5056337;28;20035;-86
2022/04/13 04:56:43;;;;;;;16.35;9.65;;;5.60;99.90;;;;;;5050908;28;20239;-86
2022/04/13 04:59:09;;;;;;;17.45;11.70;;;5.70;99.90;;;;;;5054287;28;20111;-86
2022/04/13 05:01:35;;;;;;;20.10;10.50;;;5.70;99.90;;;;;;5054785;28;20041;-86
2022/04/13 05:04:01;;;;;;;18.13;10.20;;;5.70;99.90;;;;;;5047002;28;20112;-87
2022/04/13 05:06:29;;;;;;;16.35;10.35;;;5.70;99.90;;;;;;5051317;28;20103;-86
2022/04/13 05:08:56;;;;;;;16.75;11.18;;;5.80;99.90;;;;;;5059489;28;20075;-85
2022/04/13 05:11:22;;;;;;;15.90;9.73;;;5.70;99.90;;;;;;5069169;28;20033;-86
2022/04/13 05:13:48;;;;;;;16.50;9.98;;;5.70;99.90;;;;;;5049959;28;20120;-88
2022/04/13 05:16:14;;;;;;;19.27;11.13;;;5.70;99.90;;;;;;5049801;28;20043;-85
2022/04/13 05:18:41;;;;;;;17.50;10.15;;;5.80;99.90;;;;;;5050852;28;20393;-85
2022/04/13 05:21:08;;;;;;;17.33;11.55;;;5.90;99.90;;;;;;5053201;28;20128;-89
2022/04/13 05:23:34;;;;;;;19.25;10.88;;;5.90;99.90;;;;;;5055218;28;20025;-86
2022/04/13 05:26:00;;;;;;;16.42;9.70;;;6.00;99.90;;;;;;5056573;28;20033;-85
2022/04/13 05:28:25;;;;;;;20.17;10.65;;;6.00;99.90;;;;;;5052968;28;20033;-85
2022/04/13 05:30:51;;;;;;;20.85;12.27;;;6.00;99.90;;;;;;5053347;28;20506;-84
2022/04/13 05:33:17;;;;;;;16.42;10.77;;;6.20;99.90;;;;;;5033801;28;20060;-91
2022/04/13 05:35:45;;;;;;;15.18;10.13;;;6.20;99.90;;;;;;5059134;28;20028;-84
2022/04/13 05:38:10;;;;;;;19.70;10.35;;;6.30;99.90;;;;;;5083086;28;20028;-82
2022/04/13 05:40:36;;;;;;;18.88;11.50;;;6.40;99.90;;;;;;5074171;28;20044;-85
2022/04/13 05:43:02;;;;;;;16.70;9.85;;;6.50;99.90;;;;;;5056523;28;20028;-86
2022/04/13 05:45:27;;;;;;;16.45;11.05;;;6.70;99.90;;;;;;5051463;28;20377;-82
2022/04/13 05:47:53;;;;;;;18.30;10.25;;;6.80;99.90;;;;;;5045449;28;20072;-84
2022/04/13 05:50:19;;;;;;;16.92;10.07;;;6.90;99.90;;;;;;5065816;28;20029;-78
2022/04/13 05:52:45;;;;;;;19.23;11.13;;;7.10;99.90;;;;;;5042328;28;20107;-87
2022/04/13 05:55:11;;;;;;;15.68;10.15;;;7.20;99.90;;;;;;5067031;28;20032;-90
2022/04/13 05:57:37;;;;;;;15.57;10.05;;;7.30;99.90;;;;;;5062948;28;20039;-88
2022/04/13 06:00:04;;;;;;;17.67;10.35;;;7.50;99.90;;;;;;5034467;28;20025;-88
2022/04/13 06:02:30;;;;;;;19.63;11.80;;;7.60;99.90;;;;;;5057739;28;20063;-89
2022/04/13 06:04:56;;;;;;;17.35;10.25;;;7.70;99.90;;;;;;5054819;28;20037;-84
2022/04/13 06:07:22;;;;;;;18.10;10.60;;;7.80;99.90;;;;;;5065651;28;20403;-85
2022/04/13 06:09:47;;;;;;;17.00;10.80;;;7.90;99.90;;;;;;5053993;28;20717;-85
2022/04/13 06:12:22;;;;;;;17.42;9.80;;;8.00;99.90;;;;;;5060266;28;20037;-88
2022/04/13 06:14:48;;;;;;;20.80;9.48;;;8.10;99.90;;;;;;5059814;28;20532;-90
2022/04/13 06:17:13;;;;;;;16.40;9.88;;;8.20;99.90;;;;;;5060097;28;20113;-88
2022/04/13 06:19:39;;;;;;;15.98;10.15;;;8.30;99.90;;;;;;5043034;28;20487;-87
2022/04/13 06:22:04;;;;;;;17.73;9.32;;;8.40;99.90;;;;;;5054222;28;20491;-92
2022/04/13 06:24:30;;;;;;;15.52;8.93;;;8.50;99.30;;;;;;5036941;28;20044;-85
2022/04/13 06:26:56;;;;;;;13.48;8.65;;;8.50;98.00;;;;;;5053834;28;20141;-86
2022/04/13 06:29:21;;;;;;;13.13;8.63;;;8.50;96.20;;;;;;5054333;28;20098;-90
2022/04/13 06:31:47;;;;;;;13.90;8.55;;;8.60;95.90;;;;;;5050892;28;20045;-90
2022/04/13 06:34:13;;;;;;;13.93;7.75;;;8.70;95.10;;;;;;5052670;28;20032;-91
2022/04/13 06:36:38;;;;;;;15.02;7.65;;;8.80;94.80;;;;;;5051275;28;20033;-86
2022/04/13 06:39:04;;;;;;;14.80;8.82;;;8.80;94.90;;;;;;5053320;28;20029;-92
2022/04/13 06:41:31;;;;;;;14.23;8.98;;;8.90;96.30;;;;;;5059032;28;20079;-87
2022/04/13 06:43:58;;;;;;;13.18;10.13;;;8.90;95.60;;;;;;5060529;28;20124;-87
2022/04/13 06:46:24;;;;;;;17.70;9.60;;;8.90;96.50;;;;;;5069717;28;20123;-87
2022/04/13 06:48:50;;;;;;;14.65;9.07;;;9.10;96.70;;;;;;5058533;28;20603;-86
2022/04/13 06:51:16;;;;;;;13.57;8.75;;;9.20;96.40;;;;;;5048841;28;20041;-89
2022/04/13 06:53:41;;;;;;;15.02;8.93;;;9.20;95.50;;;;;;5058331;28;20033;-89
2022/04/13 06:56:07;;;;;;;15.55;9.70;;;9.30;96.00;;;;;;5056230;28;20096;-90
2022/04/13 06:58:33;;;;;;;12.95;9.20;;;9.40;96.20;;;;;;5065225;28;20419;-89
2022/04/13 07:00:58;;;;;;;17.38;10.27;;;9.50;95.30;;;;;;5050199;28;20517;-87
2022/04/13 07:03:25;;;;;;;17.00;9.40;;;9.60;95.80;;;;;;5056728;28;20519;-87
2022/04/13 07:05:50;;;;;;;11.82;8.32;;;9.60;95.10;;;;;;5057843;28;20079;-87
2022/04/13 07:08:16;;;;;;;17.02;10.02;;;9.60;95.50;;;;;;5048003;28;20459;-87
2022/04/13 07:10:42;;;;;;;17.35;9.88;;;9.70;96.00;;;;;;5053579;28;20372;-89
2022/04/13 07:13:08;;;;;;;13.95;8.75;;;9.80;95.80;;;;;;5055360;28;20496;-88
2022/04/13 07:15:33;;;;;;;15.52;9.40;;;10.00;94.10;;;;;;5059474;28;20083;-88
2022/04/13 07:17:59;;;;;;;13.07;9.15;;;10.10;94.30;;;;;;5057679;28;20040;-87
2022/04/13 07:20:25;;;;;;;16.70;9.85;;;10.30;93.90;;;;;;5053670;28;20616;-86
2022/04/13 07:22:53;;;;;;;16.60;9.82;;;10.50;93.50;;;;;;5056663;28;20033;-88
2022/04/13 07:25:20;;;;;;;15.07;8.95;;;10.60;93.20;;;;;;5074251;28;20076;-89
2022/04/13 07:27:47;;;;;;;13.82;9.27;;;10.70;93.20;;;;;;5069516;28;20017;-88
2022/04/13 07:30:13;;;;;;;15.82;9.52;;;10.90;93.00;;;;;;5040000;28;20040;-92
2022/04/13 07:32:40;;;;;;;17.88;9.85;;;11.10;92.00;;;;;;5051222;28;20049;-90
2022/04/13 07:35:07;;;;;;;14.93;9.02;;;11.30;90.90;;;;;;5053635;28;20099;-91
2022/04/13 07:37:33;;;;;;;14.80;9.20;;;11.30;91.00;;;;;;5051812;28;20021;-89
2022/04/13 07:39:58;;;;;;;16.55;8.70;;;11.40;90.50;;;;;;5063365;28;20037;-88
2022/04/13 07:42:26;;;;;;;17.30;9.38;;;11.30;90.00;;;;;;5060007;28;20048;-88
2022/04/13 07:44:52;;;;;;;14.43;9.25;;;11.30;90.40;;;;;;5057294;28;20063;-89
2022/04/13 07:47:19;;;;;;;14.45;8.35;;;11.40;90.20;;;;;;5053629;28;20032;-86
2022/04/13 07:49:46;;;;;;;13.85;8.75;;;11.60;87.70;;;;;;5051670;28;20434;-85
2022/04/13 07:52:12;;;;;;;17.17;9.52;;;11.70;85.90;;;;;;5052373;28;20044;-86
2022/04/13 07:54:38;;;;;;;19.10;9.18;;;11.90;86.90;;;;;;5056658;28;20039;-84
2022/04/13 07:57:04;;;;;;;14.32;8.25;;;12.10;87.00;;;;;;5053978;28;20032;-86
2022/04/13 07:59:30;;;;;;;14.57;8.80;;;12.40;82.80;;;;;;5052323;28;20418;-87
2022/04/13 08:01:55;;;;;;;13.73;9.13;;;12.60;82.60;;;;;;5052203;28;20041;-86
2022/04/13 08:04:21;;;;;;;14.55;8.98;;;12.70;82.90;;;;;;5052651;28;20028;-84
2022/04/13 08:06:48;;;;;;;14.80;9.40;;;12.90;81.40;;;;;;5053816;28;20032;-88
2022/04/13 08:09:13;;;;;;;12.60;8.35;;;13.20;83.50;;;;;;5034049;28;20398;-86
2022/04/13 08:11:39;;;;;;;13.73;8.85;;;13.40;80.20;;;;;;5046741;28;20033;-86
2022/04/13 08:14:05;;;;;;;13.70;8.45;;;13.70;80.00;;;;;;5049477;28;20764;-90
2022/04/13 08:16:31;;;;;;;12.23;8.38;;;13.80;77.80;;;;;;5058564;28;20029;-89
2022/04/13 08:18:57;;;;;;;13.15;7.70;;;14.00;79.90;;;;;;5057572;28;20025;-91
2022/04/13 08:21:23;;;;;;;12.70;8.77;;;14.20;73.70;;;;;;5054370;28;20107;-88
2022/04/13 08:23:48;;;;;;;13.93;8.45;;;14.30;73.30;;;;;;5052668;28;20384;-90
2022/04/13 08:26:14;;;;;;;14.52;7.68;;;14.40;71.10;;;;;;5052314;28;20041;-86
2022/04/13 08:28:40;;;;;;;11.27;7.13;;;14.40;69.60;;;;;;5055029;28;20036;-83
2022/04/13 08:31:07;;;;;;;12.70;8.10;;;14.50;69.20;;;;;;5074915;28;20132;-85
2022/04/13 08:33:33;;;;;;;11.07;7.07;;;14.70;67.20;;;;;;5051805;28;20063;-84
2022/04/13 08:35:59;;;;;;;15.57;7.93;;;14.70;68.00;;;;;;5059678;28;20496;-85
2022/04/13 08:38:25;;;;;;;12.30;7.63;;;14.90;68.10;;;;;;5058890;28;20063;-83
2022/04/13 08:40:58;;;;;;;11.93;7.78;;;15.00;68.10;;;;;;5060342;28;20029;-83
2022/04/13 08:43:47;;;;;;;10.20;7.63;;;15.10;69.10;;;;;;5062929;28;20123;-86
2022/04/13 08:46:19;;;;;;;12.38;7.32;;;15.30;68.30;;;;;;5060953;28;20103;-83
2022/04/13 08:48:47;;;;;;;14.98;8.65;;;15.50;66.70;;;;;;5058141;28;20049;-84
2022/04/13 08:51:17;;;;;;;13.40;7.95;;;15.80;67.60;;;;;;5057988;28;20450;-86
2022/04/13 08:53:50;;;;;;;10.65;7.55;;;16.00;64.90;;;;;;5053643;28;20019;-82
2022/04/13 08:56:19;;;;;;;13.35;7.97;;;16.20;67.10;;;;;;5048684;28;20037;-82
2022/04/13 08:59:10;;;;;;;13.43;7.22;;;16.50;66.10;;;;;;5056942;28;20028;-83
2022/04/13 09:01:59;;;;;;;12.95;7.53;;;16.80;63.80;;;;;;5047376;28;20083;-82
2022/04/13 09:04:28;;;;;;;13.13;7.53;;;16.70;63.20;;;;;;5049531;28;20031;-83
2022/04/13 09:06:58;;;;;;;12.40;8.43;;;16.80;64.40;;;;;;5059217;28;20036;-83
2022/04/13 09:09:41;;;;;;;10.20;7.75;;;16.90;64.70;;;;;;5065102;28;20761;-80
2022/04/13 09:12:09;;;;;;;12.23;7.57;;;17.20;63.10;;;;;;5059501;28;20037;-81
2022/04/13 09:14:37;;;;;;;10.40;7.35;;;17.50;63.70;;;;;;5055385;28;20040;-78
2022/04/13 09:17:04;;;;;;;10.70;7.50;;;17.70;62.10;;;;;;5055292;28;20025;-81
2022/04/13 09:19:30;;;;;;;11.30;7.60;;;18.10;61.40;;;;;;5057057;28;20025;-82
2022/04/13 09:21:58;;;;;;;12.77;6.43;;;18.10;59.20;;;;;;5056251;28;20041;-84
2022/04/13 09:24:27;;;;;;;7.97;6.22;;;18.20;55.00;;;;;;5049774;28;20136;-81
2022/04/13 09:26:54;;;;;;;9.55;6.68;;;18.30;57.50;;;;;;5056473;28;20037;-86
2022/04/13 09:29:20;;;;;;;12.57;6.35;;;17.90;55.60;;;;;;5053936;28;20029;-84
2022/04/13 09:31:46;;;;;;;10.98;6.40;;;18.50;55.80;;;;;;5033909;28;20063;-80
2022/04/13 09:34:12;;;;;;;9.90;6.55;;;18.90;54.40;;;;;;5036637;28;20052;-82
2022/04/13 09:36:38;;;;;;;9.27;6.97;;;18.90;53.20;;;;;;5064460;28;20091;-84
2022/04/13 09:39:04;;;;;;;11.35;6.57;;;19.00;54.10;;;;;;5037076;28;20026;-79
2022/04/13 09:41:34;;;;;;;9.35;6.88;;;19.30;54.30;;;;;;5060538;28;20048;-78
2022/04/13 09:44:00;;;;;;;;;;;19.50;55.20;;;;;;5059043;28;20029;-83
2022/04/13 09:46:29;;;;;;;9.73;6.55;;;19.20;52.50;;;;;;5091292;28;19913;-78
2022/04/13 09:49:16;;;;;;;12.75;7.18;;;19.40;52.90;;;;;;5058378;28;20025;-78
2022/04/13 09:51:47;;;;;;;20.73;7.43;;;19.50;54.00;;;;;;5058827;28;20036;-81
2022/04/13 09:54:14;;;;;;;10.73;7.38;;;19.50;54.50;;;;;;5057515;28;20028;-79
2022/04/13 09:56:47;;;;;;;8.57;7.10;;;19.50;54.10;;;;;;5055795;28;20021;-80
2022/04/13 09:59:25;;;;;;;11.82;6.00;;;19.10;52.90;;;;;;5054916;28;20021;-80
2022/04/13 10:01:51;;;;;;;10.65;6.45;;;19.60;52.90;;;;;;5035036;28;20064;-80
2022/04/13 10:04:27;;;;;;;11.23;7.18;;;19.90;52.70;;;;;;5057172;28;20028;-81
2022/04/13 10:06:53;;;;;;;10.45;6.22;;;19.80;51.80;;;;;;5060608;28;20495;-80
2022/04/13 10:09:19;;;;;;;9.75;6.72;;;19.60;51.20;;;;;;5063555;28;20341;-80
2022/04/13 10:12:03;;;;;;;10.82;6.47;;;19.60;52.50;;;;;;5061212;28;20036;-80
2022/04/13 10:14:29;;;;;;;10.13;6.95;;;20.10;52.40;;;;;;5056990;28;20025;-80
2022/04/13 10:17:04;;;;;;;11.02;7.30;;;20.20;51.00;;;;;;5053454;28;20029;-80
2022/04/13 10:19:30;;;;;;;14.73;7.95;;;20.30;51.90;;;;;;5051547;28;20487;-83
2022/04/13 10:21:59;;;;;;;11.75;7.85;;;20.40;53.00;;;;;;5053017;28;20036;-80
2022/04/13 10:24:37;;;;;;;12.60;6.82;;;20.60;53.50;;;;;;5046871;28;20037;-80
2022/04/13 10:27:15;;;;;;;10.32;8.93;;;20.80;50.70;;;;;;5053869;28;20044;-80
2022/04/13 10:29:43;;;;;;;11.38;9.07;;;20.90;53.20;;;;;;5050195;28;20248;-80
2022/04/13 10:32:22;;;;;;;11.50;8.40;;;21.30;51.10;;;;;;5034144;28;20495;-79
2022/04/13 10:34:50;;;;;;;13.57;8.02;;;21.30;50.40;;;;;;5035018;28;20028;-79
2022/04/13 10:37:19;;;;;;;13.25;8.90;;;21.20;49.60;;;;;;5044396;28;20128;-90
2022/04/13 10:39:46;;;;;;;11.50;7.63;;;20.80;50.90;;;;;;5041198;28;20029;-82
2022/04/13 10:42:14;;;;;;;13.93;7.30;;;21.00;53.10;;;;;;5022069;28;20037;-82
2022/04/13 10:45:07;;;;;;;12.65;8.25;;;21.10;49.40;;;;;;5028278;28;20029;-82
2022/04/13 10:47:52;;;;;;;11.57;7.53;;;21.70;49.00;;;;;;5032006;28;20286;-81
2022/04/13 10:50:30;;;;;;;13.35;7.43;;;22.20;48.00;;;;;;5041180;28;20032;-82
2022/04/13 10:53:14;;;;;;;8.73;6.82;;;22.30;45.80;;;;;;5036048;28;20079;-83
2022/04/13 10:55:41;;;;;;;11.00;8.13;;;22.50;49.50;;;;;;5040990;28;20677;-84
2022/04/13 10:58:13;;;;;;;13.82;7.65;;;22.70;45.10;;;;;;5037021;28;20029;-87
2022/04/13 11:00:44;;;;;;;11.27;7.55;;;23.10;45.90;;;;;;5027284;28;20124;-87
2022/04/13 11:03:11;;;;;;;12.48;8.45;;;23.70;44.00;;;;;;5043339;28;20074;-88
2022/04/13 11:05:40;;;;;;;11.77;7.05;;;24.20;42.70;;;;;;5058548;28;20044;-86
2022/04/13 11:08:09;;;;;;;10.32;7.03;;;24.80;43.20;;;;;;5057721;28;20028;-86
2022/04/13 11:10:36;;;;;;;10.77;7.75;;;25.00;37.80;;;;;;5048613;28;20032;-87
2022/04/13 11:13:02;;;;;;;11.05;7.68;;;24.90;38.20;;;;;;5058778;28;20039;-86
2022/04/13 11:15:49;;;;;;;10.90;6.95;;;25.10;37.50;;;;;;5048360;28;20025;-83
2022/04/13 11:18:17;;;;;;;11.35;6.57;;;25.00;38.00;;;;;;5052956;28;20028;-83
2022/04/13 11:21:01;;;;;;;10.38;5.18;;;25.00;36.00;;;;;;5055195;28;20109;-82
2022/04/13 11:23:47;;;;;;;9.95;5.03;;;25.00;33.70;;;;;;5050617;28;20505;-87
2022/04/13 11:26:14;;;;;;;7.82;4.45;;;24.90;34.10;;;;;;5045872;28;20020;-83
2022/04/13 11:28:39;;;;;;;8.77;4.40;;;25.00;32.60;;;;;;5047531;28;20056;-85
2022/04/13 11:31:09;;;;;;;7.63;4.03;;;25.00;32.30;;;;;;5047767;28;20041;-83
2022/04/13 11:33:57;;;;;;;7.07;4.53;;;25.30;31.50;;;;;;5037297;28;20523;-85
2022/04/13 11:36:27;;;;;;;11.25;5.78;;;25.40;31.20;;;;;;5030308;28;20037;-83
2022/04/13 11:38:53;;;;;;;10.23;5.03;;;25.10;30.30;;;;;;5031701;28;20052;-82
2022/04/13 11:41:20;;;;;;;7.28;4.78;;;25.40;29.90;;;;;;5036694;28;20663;-84
2022/04/13 11:43:47;;;;;;;9.05;5.63;;;24.80;32.70;;;;;;5031610;28;20039;-88
2022/04/13 11:46:38;;;;;;;8.80;5.03;;;24.80;31.40;;;;;;5035411;28;20051;-81
2022/04/13 11:49:11;;;;;;;7.35;4.53;;;24.30;31.60;;;;;;5034195;28;20021;-85
2022/04/13 11:51:37;;;;;;;8.70;4.53;;;24.80;31.30;;;;;;5032458;28;20037;-84
2022/04/13 11:54:07;;;;;;;8.60;4.47;;;25.10;29.80;;;;;;5035090;28;20480;-82
2022/04/13 11:56:33;;;;;;;5.25;3.03;;;25.20;29.50;;;;;;5027653;28;20037;-83
2022/04/13 11:58:59;;;;;;;6.22;3.70;;;25.50;29.20;;;;;;5030587;28;20451;-82
2022/04/13 12:01:26;;;;;;;6.45;3.55;;;25.70;29.20;;;;;;5036062;28;20033;-83
2022/04/13 12:03:52;;;;;;;7.03;3.67;;;25.80;28.40;;;;;;5043217;28;20054;-83
2022/04/13 12:06:19;;;;;;;8.75;3.50;;;26.60;27.40;;;;;;5044656;28;20067;-85
2022/04/13 12:08:53;;;;;;;6.55;3.35;;;27.60;27.70;;;;;;5044812;28;20425;-86
2022/04/13 12:11:20;;;;;;;8.57;4.32;;;27.70;26.60;;;;;;5041491;28;20028;-85
2022/04/13 12:13:46;;;;;;;9.50;3.92;;;27.70;25.20;;;;;;5036243;28;20066;-82
2022/04/13 12:16:26;;;;;;;8.13;4.70;;;27.80;26.00;;;;;;5041887;28;20022;-84
2022/04/13 12:18:53;;;;;;;6.85;3.78;;;27.20;26.30;;;;;;5033911;28;20017;-84
2022/04/13 12:21:24;;;;;;;7.38;3.40;;;27.70;26.10;;;;;;5036932;28;20025;-83
2022/04/13 12:23:50;;;;;;;6.38;3.30;;;28.30;27.50;;;;;;5029357;28;20040;-84
2022/04/13 12:26:28;;;;;;;5.60;3.00;;;28.20;25.10;;;;;;5038355;28;20079;-84
2022/04/13 12:28:53;;;;;;;4.00;2.70;;;28.10;24.70;;;;;;5035559;28;20149;-83
2022/04/13 12:31:19;;;;;;;7.72;2.88;;;28.60;25.00;;;;;;5044860;28;20060;-84
2022/04/13 12:33:45;;;;;;;6.72;3.00;;;28.40;25.20;;;;;;5045518;28;20026;-84
2022/04/13 12:36:12;;;;;;;6.28;3.50;;;28.20;26.00;;;;;;5070780;28;20032;-82
2022/04/13 12:38:38;;;;;;;6.55;3.50;;;28.20;25.60;;;;;;5057839;28;20037;-89
2022/04/13 12:41:15;;;;;;;3.78;3.17;;;27.90;25.60;;;;;;5063773;28;20119;-85
2022/04/13 12:43:56;;;;;;;7.60;3.70;;;27.80;25.20;;;;;;5062535;28;20024;-85